Time;durP1;ratioP1;P1;durP2;ratioP2;P2;SDS_P1;SDS_P2;PMS_P1;PMS_P2;Temp;Humidity;BMP_temperature;BMP_pressure;BME280_temperature;BME280_humidity;BME280_pressure;Samples;Min_cycle;Max_cycle;Signal;HPM_P1;HPM_P2
2022/03/24 00:00:38;;;;;;;40.75;17.38;;;8.90;99.90;;;;;;5048861;28;20045;-61
2022/03/24 00:03:05;;;;;;;40.05;17.13;;;8.90;99.90;;;;;;5048781;28;20117;-60
2022/03/24 00:05:31;;;;;;;42.00;16.42;;;8.90;99.90;;;;;;5049042;28;20636;-60
2022/03/24 00:07:57;;;;;;;40.33;16.38;;;8.90;99.90;;;;;;5049033;28;20107;-60
2022/03/24 00:10:23;;;;;;;36.20;16.00;;;8.80;99.90;;;;;;5039695;28;20048;-60
2022/03/24 00:12:51;;;;;;;38.92;16.00;;;8.80;99.90;;;;;;5038303;28;20037;-61
2022/03/24 00:15:17;;;;;;;39.83;18.40;;;8.70;99.90;;;;;;5039288;28;20805;-60
2022/03/24 00:17:42;;;;;;;39.53;15.38;;;8.70;99.90;;;;;;5038687;28;20060;-61
2022/03/24 00:20:09;;;;;;;44.33;16.20;;;8.60;99.90;;;;;;5038069;28;20117;-62
2022/03/24 00:22:34;;;;;;;36.58;15.48;;;8.60;99.90;;;;;;5040069;28;20552;-62
2022/03/24 00:25:00;;;;;;;42.20;16.20;;;8.50;99.90;;;;;;5036904;28;20045;-64
2022/03/24 00:27:27;;;;;;;36.88;15.88;;;8.50;99.90;;;;;;5040708;28;20429;-61
2022/03/24 00:29:52;;;;;;;39.10;16.73;;;8.50;99.90;;;;;;5037439;28;20022;-60
2022/03/24 00:32:18;;;;;;;42.53;18.23;;;8.40;99.90;;;;;;5038388;28;20041;-62
2022/03/24 00:34:45;;;;;;;40.90;17.25;;;8.40;99.90;;;;;;5038665;28;20041;-62
2022/03/24 00:37:11;;;;;;;38.17;17.20;;;8.30;99.90;;;;;;5038483;28;20099;-60
2022/03/24 00:39:36;;;;;;;42.78;16.60;;;8.30;99.90;;;;;;5039705;28;20120;-60
2022/03/24 00:42:11;;;;;;;41.70;17.70;;;8.30;99.90;;;;;;5043837;28;20484;-61
2022/03/24 00:44:44;;;;;;;42.65;17.58;;;8.20;99.90;;;;;;5048755;28;20041;-60
2022/03/24 00:47:11;;;;;;;40.13;15.85;;;8.20;99.90;;;;;;5049124;28;20597;-60
2022/03/24 00:49:37;;;;;;;48.25;18.13;;;8.10;99.90;;;;;;5052606;28;20036;-61
2022/03/24 00:52:05;;;;;;;36.50;15.73;;;8.10;99.90;;;;;;5051851;28;20044;-62
2022/03/24 00:54:30;;;;;;;45.28;17.27;;;8.00;99.90;;;;;;5052656;28;20502;-60
2022/03/24 00:56:56;;;;;;;45.92;17.45;;;8.00;99.90;;;;;;5052203;28;20171;-62
2022/03/24 00:59:22;;;;;;;37.88;16.13;;;8.00;99.90;;;;;;5051906;28;20055;-61
2022/03/24 01:01:48;;;;;;;43.40;15.82;;;7.90;99.90;;;;;;5052130;28;20137;-62
2022/03/24 01:04:14;;;;;;;47.67;18.25;;;7.90;99.90;;;;;;5052135;28;20037;-61
2022/03/24 01:06:39;;;;;;;41.15;17.90;;;7.80;99.90;;;;;;5052149;28;20421;-60
2022/03/24 01:09:05;;;;;;;41.22;16.05;;;7.80;99.90;;;;;;5051947;28;20540;-61
2022/03/24 01:11:31;;;;;;;42.30;17.88;;;7.80;99.90;;;;;;5051857;28;20427;-60
2022/03/24 01:13:57;;;;;;;43.58;17.67;;;7.70;99.90;;;;;;5051961;28;20029;-60
2022/03/24 01:16:23;;;;;;;46.65;16.35;;;7.70;99.90;;;;;;5051655;28;20025;-61
2022/03/24 01:18:52;;;;;;;50.90;17.70;;;7.70;99.90;;;;;;5052391;28;20040;-61
2022/03/24 01:21:17;;;;;;;39.40;16.95;;;7.60;99.90;;;;;;5033367;28;20108;-61
2022/03/24 01:23:45;;;;;;;44.45;17.10;;;7.60;99.90;;;;;;5051987;28;20541;-60
2022/03/24 01:26:11;;;;;;;42.85;16.92;;;7.60;99.90;;;;;;5051509;28;20467;-60
2022/03/24 01:28:38;;;;;;;41.60;16.23;;;7.50;99.90;;;;;;5051504;28;20091;-60
2022/03/24 01:31:05;;;;;;;39.50;16.05;;;7.50;99.90;;;;;;5051115;28;20068;-60
2022/03/24 01:33:30;;;;;;;41.53;17.55;;;7.50;99.90;;;;;;5051672;28;20047;-60
2022/03/24 01:35:56;;;;;;;40.88;16.63;;;7.50;99.90;;;;;;5051743;28;20033;-60
2022/03/24 01:38:23;;;;;;;46.58;17.05;;;7.50;99.90;;;;;;5051345;28;20033;-61
2022/03/24 01:40:49;;;;;;;45.45;16.55;;;7.50;99.90;;;;;;5033312;28;20029;-61
2022/03/24 01:43:14;;;;;;;40.15;15.98;;;7.40;99.90;;;;;;5053854;28;20425;-61
2022/03/24 01:45:40;;;;;;;45.05;17.10;;;7.40;99.90;;;;;;5051791;28;20095;-61
2022/03/24 01:48:08;;;;;;;42.03;18.00;;;7.40;99.90;;;;;;5050896;28;20033;-62
2022/03/24 01:50:35;;;;;;;41.58;18.13;;;7.40;99.90;;;;;;5051334;28;20060;-61
2022/03/24 01:53:00;;;;;;;42.72;17.00;;;7.40;99.90;;;;;;5050966;28;20033;-63
2022/03/24 01:55:26;;;;;;;44.42;18.55;;;7.40;99.90;;;;;;5051505;28;20032;-61
2022/03/24 01:57:52;;;;;;;37.95;16.55;;;7.30;99.90;;;;;;5050824;28;20044;-61
2022/03/24 02:00:19;;;;;;;41.65;17.05;;;7.30;99.90;;;;;;5047141;28;20052;-61
2022/03/24 02:02:45;;;;;;;37.90;16.83;;;7.30;99.90;;;;;;5051270;28;20065;-62
2022/03/24 02:05:11;;;;;;;45.80;18.80;;;7.30;99.90;;;;;;5050101;28;20523;-62
2022/03/24 02:07:37;;;;;;;40.30;16.63;;;7.20;99.90;;;;;;5051018;28;20091;-62
2022/03/24 02:10:06;;;;;;;43.03;17.55;;;7.20;99.90;;;;;;5050187;28;20033;-62
2022/03/24 02:12:33;;;;;;;41.60;16.75;;;7.20;99.90;;;;;;5050907;28;20032;-61
2022/03/24 02:15:00;;;;;;;40.72;15.80;;;7.10;99.90;;;;;;5048388;28;20172;-61
2022/03/24 02:17:29;;;;;;;41.55;16.58;;;7.10;99.90;;;;;;5027551;28;20041;-62
2022/03/24 02:19:57;;;;;;;49.22;16.40;;;7.10;99.90;;;;;;5039188;28;20036;-63
2022/03/24 02:22:24;;;;;;;39.45;15.85;;;7.00;99.90;;;;;;5042182;28;20057;-61
2022/03/24 02:24:50;;;;;;;43.45;16.38;;;7.00;99.90;;;;;;5039126;28;20107;-61
2022/03/24 02:27:16;;;;;;;41.22;16.27;;;7.00;99.90;;;;;;5041732;28;20120;-61
2022/03/24 02:29:41;;;;;;;44.05;16.48;;;7.00;99.90;;;;;;5039702;28;20928;-62
2022/03/24 02:32:11;;;;;;;39.95;15.40;;;6.90;99.90;;;;;;5040515;28;20400;-61
2022/03/24 02:34:37;;;;;;;40.65;15.23;;;6.90;99.90;;;;;;5040111;28;20036;-62
2022/03/24 02:37:07;;;;;;;45.10;16.67;;;6.90;99.90;;;;;;5040266;28;20573;-61
2022/03/24 02:39:34;;;;;;;36.00;14.67;;;6.80;99.90;;;;;;5040552;28;20057;-62
2022/03/24 02:42:00;;;;;;;39.30;15.55;;;6.80;99.90;;;;;;5044742;28;20336;-62
2022/03/24 02:44:28;;;;;;;38.08;16.27;;;6.80;99.90;;;;;;5032101;28;20041;-61
2022/03/24 02:46:55;;;;;;;40.20;16.90;;;6.80;99.90;;;;;;5050526;28;20025;-61
2022/03/24 02:49:25;;;;;;;41.33;16.08;;;6.70;99.90;;;;;;5049856;28;20114;-61
2022/03/24 02:51:52;;;;;;;36.05;15.55;;;6.70;99.90;;;;;;5050070;28;20040;-62
2022/03/24 02:54:19;;;;;;;38.55;15.18;;;6.60;99.90;;;;;;5049542;28;20547;-62
2022/03/24 02:56:45;;;;;;;40.65;16.15;;;6.60;99.90;;;;;;5050024;28;20041;-63
2022/03/24 02:59:12;;;;;;;39.55;16.00;;;6.60;99.90;;;;;;5048763;28;20060;-62
2022/03/24 03:01:41;;;;;;;34.05;14.82;;;6.60;99.90;;;;;;5049091;28;20033;-62
2022/03/24 03:04:07;;;;;;;39.50;16.23;;;6.60;99.90;;;;;;5048539;28;20556;-64
2022/03/24 03:06:33;;;;;;;41.70;14.98;;;6.50;99.90;;;;;;5049232;28;20135;-63
2022/03/24 03:09:00;;;;;;;37.55;16.08;;;6.50;99.90;;;;;;5048900;28;20032;-62
2022/03/24 03:11:25;;;;;;;41.95;15.88;;;6.50;99.90;;;;;;5048098;28;20029;-61
2022/03/24 03:13:52;;;;;;;43.97;16.35;;;6.40;99.90;;;;;;5049071;28;20040;-62
2022/03/24 03:16:18;;;;;;;42.00;15.57;;;6.40;99.90;;;;;;5048833;28;20104;-61
2022/03/24 03:18:44;;;;;;;37.20;16.13;;;6.40;99.90;;;;;;5044708;28;20028;-63
2022/03/24 03:21:11;;;;;;;40.90;15.68;;;6.40;99.90;;;;;;5048180;28;20548;-62
2022/03/24 03:23:38;;;;;;;42.35;15.40;;;6.40;99.90;;;;;;5048737;28;20033;-61
2022/03/24 03:26:07;;;;;;;39.42;15.02;;;6.40;99.90;;;;;;5048766;28;20487;-62
2022/03/24 03:28:33;;;;;;;39.78;14.68;;;6.40;99.90;;;;;;5049045;28;20029;-61
2022/03/24 03:30:59;;;;;;;44.58;15.90;;;6.30;99.90;;;;;;5030522;28;20044;-62
2022/03/24 03:33:25;;;;;;;39.88;14.57;;;6.40;99.90;;;;;;5030735;28;20029;-62
2022/03/24 03:35:51;;;;;;;38.45;15.00;;;6.30;99.90;;;;;;5048852;28;20078;-61
2022/03/24 03:38:18;;;;;;;36.78;14.70;;;6.30;99.90;;;;;;5048108;28;20673;-63
2022/03/24 03:40:45;;;;;;;35.15;14.88;;;6.30;99.90;;;;;;5048551;28;20033;-62
2022/03/24 03:43:11;;;;;;;46.05;15.00;;;6.20;99.90;;;;;;5050439;28;20025;-62
2022/03/24 03:45:37;;;;;;;41.03;14.93;;;6.20;99.90;;;;;;5048592;28;20041;-61
2022/03/24 03:48:05;;;;;;;33.88;13.60;;;6.20;99.90;;;;;;5048173;28;20178;-63
2022/03/24 03:50:31;;;;;;;45.03;16.02;;;6.20;99.90;;;;;;5048158;28;20033;-61
2022/03/24 03:52:57;;;;;;;38.47;13.60;;;6.10;99.90;;;;;;5048596;28;20119;-62
2022/03/24 03:55:22;;;;;;;42.25;14.80;;;6.10;99.90;;;;;;5030002;28;20520;-61
2022/03/24 03:57:48;;;;;;;37.05;14.88;;;6.00;99.90;;;;;;5011788;28;1061148;-62
2022/03/24 04:03:03;;;;;;;39.28;14.52;;;6.00;99.90;;;;;;5047905;28;20036;-62
2022/03/24 04:05:35;;;;;;;33.88;13.25;;;5.90;99.90;;;;;;5048748;28;20450;-63
2022/03/24 04:08:01;;;;;;;34.17;13.60;;;5.90;99.90;;;;;;5048743;28;20056;-66
2022/03/24 04:10:27;;;;;;;33.65;14.02;;;5.90;99.90;;;;;;5048791;28;20057;-62
2022/03/24 04:12:57;;;;;;;34.83;14.85;;;5.90;99.90;;;;;;5049199;28;20029;-62
2022/03/24 04:15:23;;;;;;;41.80;15.30;;;5.80;99.90;;;;;;5048489;28;20033;-61
2022/03/24 04:17:50;;;;;;;37.15;13.95;;;5.80;99.90;;;;;;5048942;28;20117;-62
2022/03/24 04:20:20;;;;;;;37.38;13.73;;;5.80;99.90;;;;;;5048393;28;20064;-61
2022/03/24 04:22:53;;;;;;;43.45;14.63;;;5.70;99.90;;;;;;5051212;28;20033;-62
2022/03/24 04:25:20;;;;;;;34.83;14.57;;;5.70;99.90;;;;;;5052295;28;20044;-62
2022/03/24 04:27:47;;;;;;;39.03;14.85;;;5.70;99.90;;;;;;5053140;28;20120;-62
2022/03/24 04:30:13;;;;;;;34.97;14.27;;;5.70;99.90;;;;;;5052127;28;20488;-63
2022/03/24 04:32:39;;;;;;;31.75;13.65;;;5.60;99.90;;;;;;5052359;28;20033;-61
2022/03/24 04:35:06;;;;;;;37.75;14.90;;;5.60;99.90;;;;;;5052434;28;20033;-63
2022/03/24 04:37:32;;;;;;;36.20;14.98;;;5.60;99.90;;;;;;5052700;28;20036;-62
2022/03/24 04:39:57;;;;;;;41.80;14.93;;;5.60;99.90;;;;;;5052661;28;20032;-62
2022/03/24 04:42:23;;;;;;;35.03;13.60;;;5.60;99.90;;;;;;5053790;28;20091;-62
2022/03/24 04:44:48;;;;;;;38.22;13.80;;;5.60;99.90;;;;;;5052493;28;20044;-62
2022/03/24 04:47:15;;;;;;;40.45;13.70;;;5.60;99.90;;;;;;5052201;28;20028;-63
2022/03/24 04:49:41;;;;;;;38.58;14.77;;;5.50;99.90;;;;;;5052748;28;20059;-63
2022/03/24 04:52:07;;;;;;;35.92;13.18;;;5.50;99.90;;;;;;5051766;28;20044;-63
2022/03/24 04:54:34;;;;;;;42.60;15.65;;;5.50;99.90;;;;;;5052681;28;20082;-62
2022/03/24 04:56:59;;;;;;;32.38;13.13;;;5.50;99.90;;;;;;5052210;28;20535;-62
2022/03/24 04:59:25;;;;;;;31.77;12.60;;;5.40;99.90;;;;;;5051756;28;20048;-62
2022/03/24 05:01:51;;;;;;;34.70;13.27;;;5.40;99.90;;;;;;5052132;28;20041;-62
2022/03/24 05:04:17;;;;;;;36.03;15.40;;;5.40;99.90;;;;;;5051868;28;20033;-62
2022/03/24 05:06:42;;;;;;;41.10;14.48;;;5.30;99.90;;;;;;5052186;28;20021;-62
2022/03/24 05:09:08;;;;;;;36.63;14.02;;;5.30;99.90;;;;;;5051995;28;20111;-62
2022/03/24 05:11:35;;;;;;;35.83;13.63;;;5.30;99.90;;;;;;5052052;28;20086;-62
2022/03/24 05:14:01;;;;;;;46.70;15.10;;;5.30;99.90;;;;;;5052335;28;20036;-63
2022/03/24 05:16:28;;;;;;;36.17;13.57;;;5.30;99.90;;;;;;5051691;28;20047;-61
2022/03/24 05:18:53;;;;;;;30.45;12.65;;;5.30;99.90;;;;;;5052324;28;20040;-63
2022/03/24 05:21:19;;;;;;;34.70;13.55;;;5.20;99.90;;;;;;5051482;28;20025;-61
2022/03/24 05:23:45;;;;;;;34.55;14.30;;;5.20;99.90;;;;;;5052103;28;20182;-62
2022/03/24 05:26:10;;;;;;;31.90;13.57;;;5.20;99.90;;;;;;5051481;28;20036;-61
2022/03/24 05:28:36;;;;;;;38.25;13.60;;;5.20;99.90;;;;;;5051835;28;20033;-61
2022/03/24 05:31:02;;;;;;;38.38;14.43;;;5.20;99.90;;;;;;5048226;28;20033;-63
2022/03/24 05:33:27;;;;;;;32.00;12.90;;;5.20;99.90;;;;;;5042316;28;20029;-61
2022/03/24 05:35:53;;;;;;;37.92;13.32;;;5.20;99.90;;;;;;5043639;28;20405;-62
2022/03/24 05:38:19;;;;;;;34.45;14.30;;;5.20;99.90;;;;;;5041581;28;20368;-62
2022/03/24 05:40:44;;;;;;;35.88;13.13;;;5.10;99.90;;;;;;5044660;28;20613;-62
2022/03/24 05:43:10;;;;;;;33.75;14.15;;;5.20;99.90;;;;;;5048315;28;20033;-62
2022/03/24 05:45:36;;;;;;;31.17;13.20;;;5.20;99.90;;;;;;5039985;28;20072;-69
2022/03/24 05:48:02;;;;;;;35.88;14.40;;;5.20;99.90;;;;;;5041702;28;20033;-63
2022/03/24 05:50:29;;;;;;;36.17;13.52;;;5.20;99.90;;;;;;5041894;28;20041;-62
2022/03/24 05:52:55;;;;;;;38.35;13.93;;;5.20;99.90;;;;;;5041791;28;20039;-62
2022/03/24 05:55:23;;;;;;;38.15;13.25;;;5.20;99.90;;;;;;5042155;28;20045;-61
2022/03/24 05:57:49;;;;;;;37.05;14.23;;;5.20;99.90;;;;;;5026774;28;20087;-62
2022/03/24 06:00:15;;;;;;;35.67;13.73;;;5.30;99.90;;;;;;5046178;28;20116;-62
2022/03/24 06:02:41;;;;;;;39.03;15.55;;;5.30;99.90;;;;;;5043594;28;20103;-63
2022/03/24 06:05:12;;;;;;;35.75;14.30;;;5.40;99.90;;;;;;5042495;28;20409;-62
2022/03/24 06:07:38;;;;;;;38.58;14.98;;;5.50;99.90;;;;;;5040952;28;20477;-61
2022/03/24 06:10:05;;;;;;;36.72;13.55;;;5.50;99.90;;;;;;5044839;28;20041;-62
2022/03/24 06:12:31;;;;;;;35.85;13.88;;;5.70;99.90;;;;;;5047405;28;20028;-62
2022/03/24 06:14:57;;;;;;;42.40;14.88;;;5.80;99.90;;;;;;5039341;28;20032;-61
2022/03/24 06:17:23;;;;;;;33.60;13.32;;;5.90;99.90;;;;;;5043242;28;20501;-62
2022/03/24 06:19:49;;;;;;;30.50;12.95;;;5.90;99.90;;;;;;5025114;28;20034;-63
2022/03/24 06:22:16;;;;;;;29.88;12.75;;;5.90;99.90;;;;;;5041718;28;20060;-62
2022/03/24 06:24:41;;;;;;;33.50;13.68;;;6.00;99.90;;;;;;5047196;28;20025;-61
2022/03/24 06:27:07;;;;;;;41.08;13.55;;;6.00;99.90;;;;;;5048509;28;20102;-64
2022/03/24 06:29:32;;;;;;;36.13;13.80;;;6.10;99.90;;;;;;5048042;28;20029;-63
2022/03/24 06:31:58;;;;;;;34.75;14.77;;;6.10;99.90;;;;;;5047852;28;20060;-62
2022/03/24 06:34:25;;;;;;;36.67;14.98;;;6.20;99.90;;;;;;5049239;28;20113;-61
2022/03/24 06:36:50;;;;;;;36.55;14.10;;;6.20;99.90;;;;;;5041423;28;20022;-62
2022/03/24 06:39:17;;;;;;;34.53;13.30;;;6.30;99.90;;;;;;5041043;28;20389;-61
2022/03/24 06:41:42;;;;;;;38.17;14.18;;;6.30;99.90;;;;;;5040498;28;20041;-61
2022/03/24 06:44:09;;;;;;;36.55;14.48;;;6.40;99.90;;;;;;5049612;28;20037;-63
2022/03/24 06:46:35;;;;;;;34.25;14.02;;;6.50;99.90;;;;;;5049945;28;20526;-62
2022/03/24 06:49:01;;;;;;;31.90;12.80;;;6.60;99.90;;;;;;5032532;28;20037;-63
2022/03/24 06:51:27;;;;;;;40.53;14.63;;;6.80;99.90;;;;;;5049915;28;20086;-64
2022/03/24 06:53:52;;;;;;;34.03;13.45;;;7.00;99.90;;;;;;5050387;28;20473;-63
2022/03/24 06:56:18;;;;;;;37.80;13.73;;;7.10;99.90;;;;;;5049986;28;20573;-62
2022/03/24 06:58:43;;;;;;;31.02;13.73;;;7.30;99.90;;;;;;5049849;28;20029;-62
2022/03/24 07:01:10;;;;;;;36.28;14.35;;;7.40;99.90;;;;;;5049465;28;20037;-63
2022/03/24 07:03:37;;;;;;;28.90;12.80;;;7.60;99.90;;;;;;5045397;28;20029;-62
2022/03/24 07:06:03;;;;;;;32.63;13.57;;;7.70;99.90;;;;;;5037576;28;20065;-61
2022/03/24 07:08:29;;;;;;;34.45;14.27;;;7.90;99.90;;;;;;5040816;28;20033;-62
2022/03/24 07:10:55;;;;;;;38.25;12.90;;;8.10;99.90;;;;;;5037888;28;20524;-61
2022/03/24 07:13:20;;;;;;;38.78;13.77;;;8.30;99.90;;;;;;5039489;28;20041;-63
2022/03/24 07:15:46;;;;;;;35.28;14.98;;;8.40;99.90;;;;;;5039614;28;20123;-62
2022/03/24 07:18:12;;;;;;;37.50;15.55;;;8.60;99.90;;;;;;5038641;28;20042;-62
2022/03/24 07:20:38;;;;;;;33.05;12.98;;;8.70;99.90;;;;;;5041113;28;20036;-62
2022/03/24 07:23:04;;;;;;;31.67;13.27;;;8.90;99.90;;;;;;5037901;28;20049;-63
2022/03/24 07:25:31;;;;;;;42.88;15.32;;;9.00;99.90;;;;;;5041725;28;20033;-62
2022/03/24 07:27:57;;;;;;;30.13;13.07;;;9.10;99.90;;;;;;5038403;28;20033;-61
2022/03/24 07:30:23;;;;;;;31.58;12.40;;;9.20;99.90;;;;;;5040050;28;20044;-63
2022/03/24 07:32:49;;;;;;;31.98;12.32;;;9.40;99.90;;;;;;5039377;28;20025;-62
2022/03/24 07:35:18;;;;;;;51.35;13.23;;;9.60;99.90;;;;;;5037662;28;20507;-62
2022/03/24 07:37:45;;;;;;;39.13;13.93;;;9.80;99.90;;;;;;5039258;28;20034;-62
2022/03/24 07:40:10;;;;;;;38.38;13.93;;;10.00;99.90;;;;;;5039789;28;20033;-62
2022/03/24 07:42:37;;;;;;;35.53;14.20;;;10.20;99.90;;;;;;5042542;28;20558;-61
2022/03/24 07:45:04;;;;;;;37.55;13.63;;;10.40;99.90;;;;;;5048872;28;20116;-62
2022/03/24 07:47:30;;;;;;;39.70;12.88;;;10.50;99.90;;;;;;5045833;28;20524;-62
2022/03/24 07:49:56;;;;;;;37.35;12.88;;;10.60;99.90;;;;;;5049097;28;20112;-62
2022/03/24 07:52:28;;;;;;;46.65;14.73;;;10.80;99.90;;;;;;5049186;28;20041;-62
2022/03/24 07:54:55;;;;;;;34.00;12.85;;;11.00;99.90;;;;;;5049129;28;20037;-61
2022/03/24 07:57:21;;;;;;;34.53;14.38;;;11.20;99.90;;;;;;5048302;28;20044;-62
2022/03/24 07:59:46;;;;;;;33.75;13.73;;;11.30;99.90;;;;;;5049757;28;20053;-61
2022/03/24 08:02:12;;;;;;;40.35;12.40;;;11.50;99.90;;;;;;5030850;28;20500;-61
2022/03/24 08:04:38;;;;;;;31.98;12.98;;;11.60;99.90;;;;;;5049007;28;20445;-62
2022/03/24 08:07:04;;;;;;;35.67;12.38;;;11.80;99.90;;;;;;5048797;28;20029;-62
2022/03/24 08:09:32;;;;;;;32.58;13.63;;;11.90;99.90;;;;;;5049004;28;20432;-59
2022/03/24 08:11:59;;;;;;;36.33;12.40;;;12.00;99.90;;;;;;5044950;28;20116;-61
2022/03/24 08:14:24;;;;;;;39.08;13.20;;;12.20;99.90;;;;;;5048824;28;20128;-60
2022/03/24 08:16:50;;;;;;;30.80;11.70;;;12.30;99.90;;;;;;5042657;28;20104;-61
2022/03/24 08:19:16;;;;;;;35.10;13.05;;;12.50;99.90;;;;;;5038208;28;20036;-60
2022/03/24 08:21:42;;;;;;;34.30;12.90;;;12.60;99.90;;;;;;5042750;28;20029;-60
2022/03/24 08:24:08;;;;;;;39.75;13.25;;;12.70;99.90;;;;;;5030343;28;20026;-60
2022/03/24 08:26:35;;;;;;;31.02;11.68;;;12.90;99.90;;;;;;5048847;28;20068;-59
2022/03/24 08:29:01;;;;;;;30.13;11.85;;;13.00;99.90;;;;;;5049041;28;20060;-60
2022/03/24 08:31:27;;;;;;;29.30;11.15;;;13.20;99.90;;;;;;5044553;28;20087;-60
2022/03/24 08:33:53;;;;;;;29.98;11.23;;;13.30;99.20;;;;;;5048796;28;20401;-60
2022/03/24 08:36:19;;;;;;;24.50;11.15;;;13.40;98.40;;;;;;5048548;28;20044;-60
2022/03/24 08:38:44;;;;;;;35.58;11.65;;;13.50;97.70;;;;;;5048741;28;20029;-62
2022/03/24 08:41:10;;;;;;;29.20;11.30;;;13.60;97.10;;;;;;5048415;28;20450;-61
2022/03/24 08:43:35;;;;;;;29.55;10.57;;;13.70;96.00;;;;;;5052687;28;20079;-61
2022/03/24 08:46:02;;;;;;;34.72;10.25;;;13.80;95.40;;;;;;5048695;28;20033;-60
2022/03/24 08:48:28;;;;;;;26.10;10.63;;;14.00;92.00;;;;;;5048723;28;20447;-60
2022/03/24 08:50:53;;;;;;;21.23;9.90;;;14.20;91.30;;;;;;5048292;28;20028;-63
2022/03/24 08:53:19;;;;;;;22.85;10.05;;;14.40;88.10;;;;;;5048328;28;20044;-60
2022/03/24 08:55:45;;;;;;;19.70;9.32;;;14.40;83.10;;;;;;5048572;28;20103;-61
2022/03/24 08:58:12;;;;;;;25.02;8.93;;;14.60;80.60;;;;;;5048200;28;20052;-60
2022/03/24 09:00:38;;;;;;;20.63;9.52;;;14.70;77.60;;;;;;5048240;28;20129;-63
2022/03/24 09:03:04;;;;;;;23.88;9.55;;;14.80;74.20;;;;;;5048590;28;20052;-62
2022/03/24 09:05:30;;;;;;;26.20;9.88;;;14.90;70.60;;;;;;5048164;28;20064;-61
2022/03/24 09:07:55;;;;;;;20.55;9.15;;;15.00;69.70;;;;;;5049031;28;20508;-60
2022/03/24 09:10:22;;;;;;;25.50;10.40;;;15.20;70.20;;;;;;5051486;28;20131;-60
2022/03/24 09:12:48;;;;;;;23.35;10.50;;;15.30;72.00;;;;;;5052425;28;20060;-60
2022/03/24 09:15:17;;;;;;;25.70;9.38;;;15.40;70.90;;;;;;5050856;28;20060;-60
2022/03/24 09:17:43;;;;;;;25.52;10.02;;;15.60;69.30;;;;;;5051722;28;20029;-60
2022/03/24 09:20:12;;;;;;;20.33;8.75;;;15.60;67.90;;;;;;5051383;28;20807;-61
2022/03/24 09:22:43;;;;;;;25.75;9.35;;;15.60;64.40;;;;;;5052260;28;20519;-60
2022/03/24 09:25:10;;;;;;;20.30;9.35;;;15.80;65.30;;;;;;5051471;28;20044;-60
2022/03/24 09:27:37;;;;;;;24.05;9.30;;;15.80;63.50;;;;;;5051908;28;20033;-60
2022/03/24 09:30:05;;;;;;;20.02;8.60;;;15.90;60.90;;;;;;5051042;28;20021;-63
2022/03/24 09:32:31;;;;;;;21.20;9.32;;;15.90;59.90;;;;;;5051946;28;20503;-60
2022/03/24 09:34:57;;;;;;;19.33;9.18;;;16.00;59.90;;;;;;5051779;28;20025;-60
2022/03/24 09:37:23;;;;;;;18.10;8.55;;;16.00;58.30;;;;;;5047490;28;20037;-60
2022/03/24 09:39:50;;;;;;;31.70;9.38;;;16.10;58.20;;;;;;5051601;28;20039;-60
2022/03/24 09:42:17;;;;;;;16.08;8.05;;;16.20;58.40;;;;;;5054639;28;20040;-60
2022/03/24 09:44:45;;;;;;;22.95;9.90;;;16.30;58.90;;;;;;5051262;28;20029;-62
2022/03/24 09:47:12;;;;;;;19.88;7.50;;;16.40;58.90;;;;;;5051213;28;20048;-61
2022/03/24 09:49:40;;;;;;;21.55;8.95;;;16.60;58.90;;;;;;5051497;28;20025;-62
2022/03/24 09:52:06;;;;;;;17.25;7.70;;;16.60;59.80;;;;;;5051033;28;20037;-61
2022/03/24 09:54:32;;;;;;;17.02;8.27;;;16.80;58.30;;;;;;5051416;28;20509;-60
2022/03/24 09:57:03;;;;;;;20.30;8.60;;;16.80;58.80;;;;;;5051127;28;20052;-60
2022/03/24 09:59:29;;;;;;;17.58;9.25;;;16.90;58.50;;;;;;5050972;28;20041;-63
2022/03/24 10:01:55;;;;;;;20.95;8.73;;;16.90;57.20;;;;;;5051222;28;20029;-62
2022/03/24 10:04:21;;;;;;;17.50;9.10;;;17.00;57.30;;;;;;5046938;28;20025;-60
2022/03/24 10:07:06;;;;;;;15.82;7.43;;;17.10;55.40;;;;;;5051060;28;20538;-61
2022/03/24 10:09:39;;;;;;;18.02;8.38;;;17.10;55.10;;;;;;5048402;28;20025;-60
2022/03/24 10:12:06;;;;;;;14.23;6.68;;;17.10;54.70;;;;;;5049957;28;20522;-61
2022/03/24 10:14:32;;;;;;;17.10;8.38;;;17.20;51.90;;;;;;5051267;28;20100;-61
2022/03/24 10:17:11;;;;;;;17.35;8.98;;;17.10;52.90;;;;;;5050736;28;20055;-60
2022/03/24 10:19:37;;;;;;;15.63;7.60;;;17.10;52.90;;;;;;5049373;28;20441;-59
2022/03/24 10:22:08;;;;;;;19.77;8.38;;;17.00;51.80;;;;;;5050154;28;20033;-60
2022/03/24 10:24:40;;;;;;;20.33;9.10;;;17.00;52.00;;;;;;5033175;28;20029;-60
2022/03/24 10:27:05;;;;;;;13.32;7.20;;;17.10;52.10;;;;;;5049781;28;20518;-60
2022/03/24 10:29:33;;;;;;;19.50;7.95;;;17.10;50.30;;;;;;5050916;28;20037;-61
2022/03/24 10:32:01;;;;;;;15.95;7.45;;;17.10;51.20;;;;;;5049782;28;20053;-60
2022/03/24 10:34:28;;;;;;;18.13;9.20;;;17.10;52.50;;;;;;5050135;28;20029;-62
2022/03/24 10:36:54;;;;;;;16.90;8.15;;;17.10;52.70;;;;;;5032598;28;20060;-60
2022/03/24 10:39:24;;;;;;;14.85;7.85;;;17.10;52.80;;;;;;5050329;28;20445;-59
2022/03/24 10:41:49;;;;;;;18.88;8.23;;;17.10;53.20;;;;;;5048733;28;20083;-61
2022/03/24 10:44:15;;;;;;;12.90;7.47;;;17.10;53.90;;;;;;5054948;28;20041;-62
2022/03/24 10:46:42;;;;;;;15.05;7.65;;;17.10;51.40;;;;;;5050280;28;20041;-62
2022/03/24 10:49:26;;;;;;;23.17;8.85;;;17.20;51.60;;;;;;5050285;28;20035;-61
2022/03/24 10:51:53;;;;;;;25.88;8.38;;;17.20;52.10;;;;;;5028629;28;20036;-61
2022/03/24 10:54:25;;;;;;;21.27;7.80;;;17.20;52.20;;;;;;5049835;28;20056;-59
2022/03/24 10:57:03;;;;;;;20.10;8.68;;;17.30;53.30;;;;;;5046402;28;20033;-59
2022/03/24 10:59:33;;;;;;;19.35;8.85;;;17.30;53.70;;;;;;5047348;28;20079;-60
2022/03/24 11:01:59;;;;;;;22.45;9.00;;;17.30;53.30;;;;;;5032141;28;20108;-60
2022/03/24 11:04:25;;;;;;;22.88;8.98;;;17.20;53.60;;;;;;5049803;28;20111;-61
2022/03/24 11:06:52;;;;;;;23.98;9.43;;;17.30;54.40;;;;;;5050040;28;20025;-60
2022/03/24 11:09:27;;;;;;;20.00;7.63;;;17.30;53.60;;;;;;5045783;28;20021;-60
2022/03/24 11:12:36;;;;;;;20.00;8.88;;;17.30;54.60;;;;;;5046214;28;20064;-61
2022/03/24 11:15:04;;;;;;;19.27;8.27;;;17.40;54.20;;;;;;5047760;28;20047;-60
2022/03/24 11:17:35;;;;;;;24.30;8.93;;;17.30;54.70;;;;;;5049452;28;20033;-60
2022/03/24 11:20:03;;;;;;;17.77;8.23;;;17.40;55.00;;;;;;5049661;28;20041;-61
2022/03/24 11:22:48;;;;;;;19.98;7.57;;;17.30;55.40;;;;;;5049616;28;20033;-60
2022/03/24 11:25:14;;;;;;;16.88;7.47;;;17.40;55.40;;;;;;5049581;28;20033;-60
2022/03/24 11:27:40;;;;;;;25.52;8.48;;;17.40;55.30;;;;;;5049577;28;20083;-60
2022/03/24 11:30:09;;;;;;;17.35;7.80;;;17.50;55.90;;;;;;5030980;28;20033;-60
2022/03/24 11:32:37;;;;;;;32.53;9.48;;;17.50;55.70;;;;;;5030602;28;20056;-61
2022/03/24 11:35:07;;;;;;;19.20;8.00;;;17.50;54.30;;;;;;5031573;28;20122;-59
2022/03/24 11:37:33;;;;;;;17.37;8.30;;;17.40;54.10;;;;;;5049510;28;20040;-60
2022/03/24 11:40:23;;;;;;;23.08;8.40;;;17.40;54.70;;;;;;5031360;28;20028;-60
2022/03/24 11:43:08;;;;;;;23.57;7.37;;;17.40;53.80;;;;;;5047743;28;20037;-61
2022/03/24 11:45:44;;;;;;;21.05;7.97;;;17.50;54.60;;;;;;5047660;28;20124;-61
2022/03/24 11:48:11;;;;;;;21.38;8.55;;;17.40;55.50;;;;;;5048754;28;20037;-60
2022/03/24 11:50:41;;;;;;;19.38;8.13;;;17.50;55.60;;;;;;5049326;28;20032;-60
2022/03/24 11:53:09;;;;;;;19.57;7.53;;;17.50;54.70;;;;;;5048688;28;20123;-62
2022/03/24 11:55:37;;;;;;;24.48;8.45;;;17.40;54.90;;;;;;5031612;28;20043;-62
2022/03/24 11:58:03;;;;;;;18.02;7.95;;;17.50;54.70;;;;;;5048738;28;20610;-60
2022/03/24 12:00:28;;;;;;;20.27;7.00;;;17.40;54.60;;;;;;5049135;28;20112;-60
2022/03/24 12:03:00;;;;;;;17.35;7.85;;;17.50;55.70;;;;;;5031348;28;20045;-60
2022/03/24 12:05:47;;;;;;;22.35;7.93;;;17.60;56.10;;;;;;5048580;28;20057;-63
2022/03/24 12:08:12;;;;;;;13.18;6.13;;;17.50;56.50;;;;;;5048623;28;20087;-60
2022/03/24 12:10:38;;;;;;;23.63;8.00;;;17.60;56.70;;;;;;5048985;28;20044;-60
2022/03/24 12:13:15;;;;;;;21.35;7.95;;;17.60;55.50;;;;;;5048745;28;20060;-62
2022/03/24 12:15:41;;;;;;;22.65;7.40;;;17.60;55.60;;;;;;5049141;28;20520;-61
2022/03/24 12:18:08;;;;;;;20.23;7.38;;;17.60;56.80;;;;;;5048130;28;20125;-61
2022/03/24 12:20:40;;;;;;;20.50;7.85;;;17.50;56.60;;;;;;5048878;28;20025;-61
2022/03/24 12:23:06;;;;;;;23.42;8.68;;;17.50;56.10;;;;;;5048612;28;20132;-60
2022/03/24 12:25:33;;;;;;;23.27;7.40;;;17.50;57.20;;;;;;5049373;28;20124;-60
2022/03/24 12:28:22;;;;;;;20.15;7.30;;;17.50;57.90;;;;;;5049174;28;20029;-60
2022/03/24 12:30:51;;;;;;;18.35;6.80;;;17.60;58.00;;;;;;5048504;28;20475;-61
2022/03/24 12:33:33;;;;;;;15.88;6.97;;;17.60;57.30;;;;;;5047825;28;20107;-60
2022/03/24 12:35:59;;;;;;;19.33;8.23;;;17.60;57.60;;;;;;5029369;28;20040;-61
2022/03/24 12:38:32;;;;;;;21.15;8.25;;;17.70;57.80;;;;;;5048356;28;20480;-61